Pathein, Burma
Current Conditions -  °F | °C
As of 10:30 AM on Sunday 23 Nov 2014 (Local Time) from VYYY Reporting Station
Scattered Clouds Scattered Clouds  
Wind Chill: 84°   Ceiling: Unl
Heat Index: 92°   Visibility: 6mi
Dew Point: 75°   Wind: 2mph
Humidity: 74%   Direction: 10°N
Pressure: 29.94"   Gusts: NA
Location:  16.78°N, 94.73°E
Report Text: VYYY 230430Z 01002KT 9000 FEW025 SCT250 29/24 Q1014 NOSIG
Loading
Personal Weather Stations






























Interactive Weather Map New forecast layout! Learn more

10-Day Weather Forecast

Advertisements
Track Severe Weather on mobile